sensor_id;sensor_type;location;lat;lon;timestamp;temperature;humidity
4103;DHT22;2065;49.790;9.620;2023-05-10T00:02:08;20.10;66.20
4103;DHT22;2065;49.790;9.620;2023-05-10T00:04:36;20.10;66.60
4103;DHT22;2065;49.790;9.620;2023-05-10T00:07:03;20.10;66.50
4103;DHT22;2065;49.790;9.620;2023-05-10T00:09:31;20.10;66.40
4103;DHT22;2065;49.790;9.620;2023-05-10T00:11:58;20.20;66.40
4103;DHT22;2065;49.790;9.620;2023-05-10T00:14:25;20.10;66.00
4103;DHT22;2065;49.790;9.620;2023-05-10T00:16:52;20.20;66.00
4103;DHT22;2065;49.790;9.620;2023-05-10T00:19:19;20.30;65.70
4103;DHT22;2065;49.790;9.620;2023-05-10T00:21:46;20.50;65.40
4103;DHT22;2065;49.790;9.620;2023-05-10T00:24:13;20.60;64.80
4103;DHT22;2065;49.790;9.620;2023-05-10T00:26:41;20.60;64.40
4103;DHT22;2065;49.790;9.620;2023-05-10T00:29:09;20.50;64.60
4103;DHT22;2065;49.790;9.620;2023-05-10T00:31:35;20.40;64.60
4103;DHT22;2065;49.790;9.620;2023-05-10T00:34:02;20.30;65.20
4103;DHT22;2065;49.790;9.620;2023-05-10T00:36:29;20.40;65.50
4103;DHT22;2065;49.790;9.620;2023-05-10T00:38:56;20.20;65.40
4103;DHT22;2065;49.790;9.620;2023-05-10T00:41:23;20.40;65.50
4103;DHT22;2065;49.790;9.620;2023-05-10T00:43:52;20.60;64.60
4103;DHT22;2065;49.790;9.620;2023-05-10T00:46:19;20.60;64.90
4103;DHT22;2065;49.790;9.620;2023-05-10T00:48:46;20.70;64.70
4103;DHT22;2065;49.790;9.620;2023-05-10T00:51:13;20.60;64.20
4103;DHT22;2065;49.790;9.620;2023-05-10T00:53:40;20.50;64.90
4103;DHT22;2065;49.790;9.620;2023-05-10T00:56:07;20.50;64.40
4103;DHT22;2065;49.790;9.620;2023-05-10T00:58:34;20.30;65.00
4103;DHT22;2065;49.790;9.620;2023-05-10T01:01:04;20.10;65.90
4103;DHT22;2065;49.790;9.620;2023-05-10T01:03:32;19.80;67.30
4103;DHT22;2065;49.790;9.620;2023-05-10T01:05:59;19.60;67.70
4103;DHT22;2065;49.790;9.620;2023-05-10T01:08:26;19.30;68.60
4103;DHT22;2065;49.790;9.620;2023-05-10T01:10:53;18.90;68.80
4103;DHT22;2065;49.790;9.620;2023-05-10T01:13:31;18.50;69.90
4103;DHT22;2065;49.790;9.620;2023-05-10T01:15:59;18.50;70.90
4103;DHT22;2065;49.790;9.620;2023-05-10T01:18:29;18.60;71.00
4103;DHT22;2065;49.790;9.620;2023-05-10T01:21:06;18.60;71.20
4103;DHT22;2065;49.790;9.620;2023-05-10T01:27:08;18.70;71.60
4103;DHT22;2065;49.790;9.620;2023-05-10T01:29:59;18.80;69.70
4103;DHT22;2065;49.790;9.620;2023-05-10T01:32:34;18.80;70.00
4103;DHT22;2065;49.790;9.620;2023-05-10T01:35:06;19.00;69.50
4103;DHT22;2065;49.790;9.620;2023-05-10T01:37:40;19.00;69.50
4103;DHT22;2065;49.790;9.620;2023-05-10T01:40:16;18.80;67.90
4103;DHT22;2065;49.790;9.620;2023-05-10T01:42:49;18.80;69.10
4103;DHT22;2065;49.790;9.620;2023-05-10T01:45:24;18.80;68.70
4103;DHT22;2065;49.790;9.620;2023-05-10T01:48:02;18.70;67.50
4103;DHT22;2065;49.790;9.620;2023-05-10T01:50:32;18.50;68.60
4103;DHT22;2065;49.790;9.620;2023-05-10T01:53:02;18.70;69.10
4103;DHT22;2065;49.790;9.620;2023-05-10T01:55:34;18.70;68.00
4103;DHT22;2065;49.790;9.620;2023-05-10T01:58:06;18.70;67.90
4103;DHT22;2065;49.790;9.620;2023-05-10T02:00:35;18.60;67.60
4103;DHT22;2065;49.790;9.620;2023-05-10T02:03:06;18.50;68.20
4103;DHT22;2065;49.790;9.620;2023-05-10T02:05:37;18.50;67.80
4103;DHT22;2065;49.790;9.620;2023-05-10T02:08:07;18.50;67.60
4103;DHT22;2065;49.790;9.620;2023-05-10T02:10:37;18.40;67.30
4103;DHT22;2065;49.790;9.620;2023-05-10T02:13:05;18.30;67.50
4103;DHT22;2065;49.790;9.620;2023-05-10T02:15:34;18.30;67.70
4103;DHT22;2065;49.790;9.620;2023-05-10T02:18:02;18.10;68.00
4103;DHT22;2065;49.790;9.620;2023-05-10T02:20:33;18.00;68.90
4103;DHT22;2065;49.790;9.620;2023-05-10T02:23:02;18.00;68.70
4103;DHT22;2065;49.790;9.620;2023-05-10T02:25:31;18.00;68.60
4103;DHT22;2065;49.790;9.620;2023-05-10T02:28:02;18.00;68.60
4103;DHT22;2065;49.790;9.620;2023-05-10T02:30:31;17.80;67.90
4103;DHT22;2065;49.790;9.620;2023-05-10T02:32:59;17.70;69.20
4103;DHT22;2065;49.790;9.620;2023-05-10T02:35:32;17.80;69.30
4103;DHT22;2065;49.790;9.620;2023-05-10T02:38:01;18.00;68.80
4103;DHT22;2065;49.790;9.620;2023-05-10T02:40:30;18.20;68.20
4103;DHT22;2065;49.790;9.620;2023-05-10T02:42:59;18.30;68.00
4103;DHT22;2065;49.790;9.620;2023-05-10T02:45:31;18.40;67.60
4103;DHT22;2065;49.790;9.620;2023-05-10T02:47:58;18.40;67.30
4103;DHT22;2065;49.790;9.620;2023-05-10T02:50:27;18.40;67.10
4103;DHT22;2065;49.790;9.620;2023-05-10T02:53:00;18.50;66.70
4103;DHT22;2065;49.790;9.620;2023-05-10T02:55:35;18.40;66.30
4103;DHT22;2065;49.790;9.620;2023-05-10T02:58:03;18.40;66.70
4103;DHT22;2065;49.790;9.620;2023-05-10T03:00:31;18.50;65.80
4103;DHT22;2065;49.790;9.620;2023-05-10T03:02:59;18.40;66.80
4103;DHT22;2065;49.790;9.620;2023-05-10T03:05:27;18.20;67.20
4103;DHT22;2065;49.790;9.620;2023-05-10T03:07:59;18.20;67.10
4103;DHT22;2065;49.790;9.620;2023-05-10T03:10:30;18.10;66.90
4103;DHT22;2065;49.790;9.620;2023-05-10T03:13:07;18.10;67.20
4103;DHT22;2065;49.790;9.620;2023-05-10T03:15:44;18.30;67.00
4103;DHT22;2065;49.790;9.620;2023-05-10T03:18:17;18.20;66.30
4103;DHT22;2065;49.790;9.620;2023-05-10T03:20:47;18.20;66.70
4103;DHT22;2065;49.790;9.620;2023-05-10T03:23:21;18.20;66.80
4103;DHT22;2065;49.790;9.620;2023-05-10T03:25:50;18.30;66.40
4103;DHT22;2065;49.790;9.620;2023-05-10T03:28:18;18.40;66.60
4103;DHT22;2065;49.790;9.620;2023-05-10T03:30:46;18.30;66.50
4103;DHT22;2065;49.790;9.620;2023-05-10T03:33:13;18.10;66.40
4103;DHT22;2065;49.790;9.620;2023-05-10T03:35:44;18.10;67.00
4103;DHT22;2065;49.790;9.620;2023-05-10T03:38:11;18.10;66.90
4103;DHT22;2065;49.790;9.620;2023-05-10T03:40:40;18.00;67.30
4103;DHT22;2065;49.790;9.620;2023-05-10T03:43:07;17.70;67.30
4103;DHT22;2065;49.790;9.620;2023-05-10T03:45:34;17.60;67.40
4103;DHT22;2065;49.790;9.620;2023-05-10T03:48:03;17.70;68.10
4103;DHT22;2065;49.790;9.620;2023-05-10T03:50:29;17.70;68.00
4103;DHT22;2065;49.790;9.620;2023-05-10T03:52:56;17.70;68.10
4103;DHT22;2065;49.790;9.620;2023-05-10T03:55:23;17.70;67.70
4103;DHT22;2065;49.790;9.620;2023-05-10T03:57:52;17.80;67.40
4103;DHT22;2065;49.790;9.620;2023-05-10T04:00:21;17.90;67.90
4103;DHT22;2065;49.790;9.620;2023-05-10T04:02:51;17.90;66.70
4103;DHT22;2065;49.790;9.620;2023-05-10T04:05:19;17.80;67.60
4103;DHT22;2065;49.790;9.620;2023-05-10T04:07:46;17.90;67.20
4103;DHT22;2065;49.790;9.620;2023-05-10T04:10:15;18.10;66.90
4103;DHT22;2065;49.790;9.620;2023-05-10T04:12:43;18.10;66.50
4103;DHT22;2065;49.790;9.620;2023-05-10T04:15:11;18.20;65.70
4103;DHT22;2065;49.790;9.620;2023-05-10T04:17:38;18.30;66.30
4103;DHT22;2065;49.790;9.620;2023-05-10T04:20:06;18.40;66.20
4103;DHT22;2065;49.790;9.620;2023-05-10T04:22:34;18.50;65.10
4103;DHT22;2065;49.790;9.620;2023-05-10T04:25:00;18.50;65.30
4103;DHT22;2065;49.790;9.620;2023-05-10T04:27:27;18.60;65.10
4103;DHT22;2065;49.790;9.620;2023-05-10T04:29:54;18.60;65.50
4103;DHT22;2065;49.790;9.620;2023-05-10T04:32:23;18.60;65.80
4103;DHT22;2065;49.790;9.620;2023-05-10T04:34:50;18.40;64.60
4103;DHT22;2065;49.790;9.620;2023-05-10T04:37:17;18.40;65.20
4103;DHT22;2065;49.790;9.620;2023-05-10T04:39:44;18.10;65.90
4103;DHT22;2065;49.790;9.620;2023-05-10T04:42:11;18.00;66.80
4103;DHT22;2065;49.790;9.620;2023-05-10T04:44:40;18.10;66.40
4103;DHT22;2065;49.790;9.620;2023-05-10T04:47:07;18.00;66.80
4103;DHT22;2065;49.790;9.620;2023-05-10T04:49:35;18.00;66.80
4103;DHT22;2065;49.790;9.620;2023-05-10T04:52:02;18.20;66.30
4103;DHT22;2065;49.790;9.620;2023-05-10T04:54:29;18.30;66.40
4103;DHT22;2065;49.790;9.620;2023-05-10T04:56:56;18.40;66.00
4103;DHT22;2065;49.790;9.620;2023-05-10T04:59:23;18.50;65.90
4103;DHT22;2065;49.790;9.620;2023-05-10T05:01:50;18.50;65.10
4103;DHT22;2065;49.790;9.620;2023-05-10T05:04:17;18.30;65.80
4103;DHT22;2065;49.790;9.620;2023-05-10T05:06:45;18.30;66.30
4103;DHT22;2065;49.790;9.620;2023-05-10T05:09:12;18.30;65.80
4103;DHT22;2065;49.790;9.620;2023-05-10T05:11:39;18.10;66.70
4103;DHT22;2065;49.790;9.620;2023-05-10T05:14:06;18.10;67.20
4103;DHT22;2065;49.790;9.620;2023-05-10T05:16:33;18.20;67.40
4103;DHT22;2065;49.790;9.620;2023-05-10T05:19:00;18.30;66.60
4103;DHT22;2065;49.790;9.620;2023-05-10T05:21:27;18.50;66.20
4103;DHT22;2065;49.790;9.620;2023-05-10T05:23:56;18.60;65.50
4103;DHT22;2065;49.790;9.620;2023-05-10T05:26:23;18.80;66.10
4103;DHT22;2065;49.790;9.620;2023-05-10T05:28:50;18.80;64.70
4103;DHT22;2065;49.790;9.620;2023-05-10T05:31:19;18.80;64.70
4103;DHT22;2065;49.790;9.620;2023-05-10T05:33:46;18.80;64.60
4103;DHT22;2065;49.790;9.620;2023-05-10T05:36:13;18.90;64.90
4103;DHT22;2065;49.790;9.620;2023-05-10T05:38:40;18.70;64.60
4103;DHT22;2065;49.790;9.620;2023-05-10T05:41:08;18.70;64.90
4103;DHT22;2065;49.790;9.620;2023-05-10T05:43:36;18.50;65.30
4103;DHT22;2065;49.790;9.620;2023-05-10T05:46:03;18.70;65.70
4103;DHT22;2065;49.790;9.620;2023-05-10T05:48:30;18.80;65.30
4103;DHT22;2065;49.790;9.620;2023-05-10T05:50:57;18.90;65.10
4103;DHT22;2065;49.790;9.620;2023-05-10T05:53:25;19.00;64.50
4103;DHT22;2065;49.790;9.620;2023-05-10T05:55:52;19.00;65.20
4103;DHT22;2065;49.790;9.620;2023-05-10T05:58:21;19.00;64.60
4103;DHT22;2065;49.790;9.620;2023-05-10T06:00:48;19.10;64.80
4103;DHT22;2065;49.790;9.620;2023-05-10T06:03:15;19.10;65.30
4103;DHT22;2065;49.790;9.620;2023-05-10T06:05:42;19.10;65.80
4103;DHT22;2065;49.790;9.620;2023-05-10T06:08:09;19.10;65.40
4103;DHT22;2065;49.790;9.620;2023-05-10T06:10:37;19.30;65.30
4103;DHT22;2065;49.790;9.620;2023-05-10T06:13:04;19.20;65.40
4103;DHT22;2065;49.790;9.620;2023-05-10T06:15:32;18.80;66.30
4103;DHT22;2065;49.790;9.620;2023-05-10T06:18:00;18.70;66.30
4103;DHT22;2065;49.790;9.620;2023-05-10T06:20:27;18.80;66.50
4103;DHT22;2065;49.790;9.620;2023-05-10T06:22:54;18.90;66.20
4103;DHT22;2065;49.790;9.620;2023-05-10T06:25:21;18.90;65.40
4103;DHT22;2065;49.790;9.620;2023-05-10T06:27:48;18.50;65.30
4103;DHT22;2065;49.790;9.620;2023-05-10T06:30:15;18.60;66.80
4103;DHT22;2065;49.790;9.620;2023-05-10T06:32:43;18.50;66.10
4103;DHT22;2065;49.790;9.620;2023-05-10T06:35:11;18.40;65.80
4103;DHT22;2065;49.790;9.620;2023-05-10T06:37:38;18.40;66.30
4103;DHT22;2065;49.790;9.620;2023-05-10T06:40:06;18.50;66.70
4103;DHT22;2065;49.790;9.620;2023-05-10T06:42:34;18.50;66.30
4103;DHT22;2065;49.790;9.620;2023-05-10T06:45:02;18.70;66.90
4103;DHT22;2065;49.790;9.620;2023-05-10T06:47:30;18.80;65.60
4103;DHT22;2065;49.790;9.620;2023-05-10T06:49:58;18.80;64.60
4103;DHT22;2065;49.790;9.620;2023-05-10T06:52:25;18.70;64.90
4103;DHT22;2065;49.790;9.620;2023-05-10T06:54:52;18.70;65.80
4103;DHT22;2065;49.790;9.620;2023-05-10T06:57:19;18.70;65.40
4103;DHT22;2065;49.790;9.620;2023-05-10T06:59:46;18.50;63.90
4103;DHT22;2065;49.790;9.620;2023-05-10T07:02:13;18.70;65.10
4103;DHT22;2065;49.790;9.620;2023-05-10T07:04:40;18.70;65.60
4103;DHT22;2065;49.790;9.620;2023-05-10T07:07:08;18.90;64.90
4103;DHT22;2065;49.790;9.620;2023-05-10T07:09:35;19.10;64.50
4103;DHT22;2065;49.790;9.620;2023-05-10T07:12:02;19.30;64.00
4103;DHT22;2065;49.790;9.620;2023-05-10T07:14:29;19.20;63.50
4103;DHT22;2065;49.790;9.620;2023-05-10T07:16:57;19.40;63.40
4103;DHT22;2065;49.790;9.620;2023-05-10T07:19:25;19.40;63.10
4103;DHT22;2065;49.790;9.620;2023-05-10T07:21:52;19.60;63.20
4103;DHT22;2065;49.790;9.620;2023-05-10T07:24:20;19.50;61.90
4103;DHT22;2065;49.790;9.620;2023-05-10T07:26:47;19.70;62.20
4103;DHT22;2065;49.790;9.620;2023-05-10T07:29:14;19.70;63.10
4103;DHT22;2065;49.790;9.620;2023-05-10T07:31:41;19.80;60.80
4103;DHT22;2065;49.790;9.620;2023-05-10T07:34:08;20.00;61.10
4103;DHT22;2065;49.790;9.620;2023-05-10T07:36:35;20.20;60.90
4103;DHT22;2065;49.790;9.620;2023-05-10T07:39:02;20.30;60.50
4103;DHT22;2065;49.790;9.620;2023-05-10T07:41:30;20.00;59.70
4103;DHT22;2065;49.790;9.620;2023-05-10T07:43:58;19.90;60.80
4103;DHT22;2065;49.790;9.620;2023-05-10T07:46:25;20.00;59.40
4103;DHT22;2065;49.790;9.620;2023-05-10T07:48:52;20.00;59.50
4103;DHT22;2065;49.790;9.620;2023-05-10T07:51:19;20.00;59.50
4103;DHT22;2065;49.790;9.620;2023-05-10T07:53:45;20.20;58.20
4103;DHT22;2065;49.790;9.620;2023-05-10T07:56:23;20.10;59.20
4103;DHT22;2065;49.790;9.620;2023-05-10T07:58:54;20.20;59.30
4103;DHT22;2065;49.790;9.620;2023-05-10T08:01:21;20.00;58.40
4103;DHT22;2065;49.790;9.620;2023-05-10T08:03:48;19.90;59.90
4103;DHT22;2065;49.790;9.620;2023-05-10T08:06:17;19.90;58.70
4103;DHT22;2065;49.790;9.620;2023-05-10T08:08:45;20.20;60.10
4103;DHT22;2065;49.790;9.620;2023-05-10T08:11:15;20.10;57.30
4103;DHT22;2065;49.790;9.620;2023-05-10T08:13:42;20.10;58.50
4103;DHT22;2065;49.790;9.620;2023-05-10T08:16:10;20.40;59.50
4103;DHT22;2065;49.790;9.620;2023-05-10T08:18:37;20.50;57.50
4103;DHT22;2065;49.790;9.620;2023-05-10T08:21:04;20.40;57.80
4103;DHT22;2065;49.790;9.620;2023-05-10T08:23:32;20.10;57.50
4103;DHT22;2065;49.790;9.620;2023-05-10T08:25:59;20.30;58.10
4103;DHT22;2065;49.790;9.620;2023-05-10T08:28:26;20.00;57.30
4103;DHT22;2065;49.790;9.620;2023-05-10T08:30:52;20.00;58.30
4103;DHT22;2065;49.790;9.620;2023-05-10T08:33:21;20.10;59.30
4103;DHT22;2065;49.790;9.620;2023-05-10T08:35:48;20.10;58.00
4103;DHT22;2065;49.790;9.620;2023-05-10T08:38:15;20.20;59.70
4103;DHT22;2065;49.790;9.620;2023-05-10T08:40:43;20.30;57.80
4103;DHT22;2065;49.790;9.620;2023-05-10T08:43:12;20.30;58.10
4103;DHT22;2065;49.790;9.620;2023-05-10T08:45:42;20.40;58.00
4103;DHT22;2065;49.790;9.620;2023-05-10T08:48:10;20.60;58.20
4103;DHT22;2065;49.790;9.620;2023-05-10T08:50:40;20.80;57.20
4103;DHT22;2065;49.790;9.620;2023-05-10T08:53:11;21.00;56.80
4103;DHT22;2065;49.790;9.620;2023-05-10T08:55:39;21.00;56.20
4103;DHT22;2065;49.790;9.620;2023-05-10T08:58:08;20.90;56.10
4103;DHT22;2065;49.790;9.620;2023-05-10T09:00:36;20.90;56.50
4103;DHT22;2065;49.790;9.620;2023-05-10T09:03:04;20.90;55.60
4103;DHT22;2065;49.790;9.620;2023-05-10T09:05:32;20.80;57.10
4103;DHT22;2065;49.790;9.620;2023-05-10T09:08:00;20.90;55.80
4103;DHT22;2065;49.790;9.620;2023-05-10T09:10:27;20.90;57.00
4103;DHT22;2065;49.790;9.620;2023-05-10T09:12:56;20.70;56.20
4103;DHT22;2065;49.790;9.620;2023-05-10T09:15:23;20.50;56.50
4103;DHT22;2065;49.790;9.620;2023-05-10T09:17:50;20.50;57.00
4103;DHT22;2065;49.790;9.620;2023-05-10T09:20:18;20.40;56.50
4103;DHT22;2065;49.790;9.620;2023-05-10T09:22:46;20.50;56.90
4103;DHT22;2065;49.790;9.620;2023-05-10T09:25:15;20.40;55.40
4103;DHT22;2065;49.790;9.620;2023-05-10T09:27:45;20.50;55.80
4103;DHT22;2065;49.790;9.620;2023-05-10T09:30:16;20.70;56.80
4103;DHT22;2065;49.790;9.620;2023-05-10T09:32:44;21.00;55.70
4103;DHT22;2065;49.790;9.620;2023-05-10T09:35:13;21.30;55.50
4103;DHT22;2065;49.790;9.620;2023-05-10T09:37:41;21.10;54.10
4103;DHT22;2065;49.790;9.620;2023-05-10T09:40:12;21.20;54.60
4103;DHT22;2065;49.790;9.620;2023-05-10T09:42:41;21.20;54.70
4103;DHT22;2065;49.790;9.620;2023-05-10T09:45:09;21.00;55.90
4103;DHT22;2065;49.790;9.620;2023-05-10T09:47:36;21.10;54.80
4103;DHT22;2065;49.790;9.620;2023-05-10T09:50:04;21.20;54.40
4103;DHT22;2065;49.790;9.620;2023-05-10T09:52:46;21.40;54.40
4103;DHT22;2065;49.790;9.620;2023-05-10T09:55:13;21.50;54.70
4103;DHT22;2065;49.790;9.620;2023-05-10T09:57:42;21.40;53.50
4103;DHT22;2065;49.790;9.620;2023-05-10T10:00:09;21.30;53.80
4103;DHT22;2065;49.790;9.620;2023-05-10T10:02:39;21.50;54.80
4103;DHT22;2065;49.790;9.620;2023-05-10T10:05:07;21.70;53.90
4103;DHT22;2065;49.790;9.620;2023-05-10T10:07:34;21.60;53.60
4103;DHT22;2065;49.790;9.620;2023-05-10T10:10:02;21.40;52.50
4103;DHT22;2065;49.790;9.620;2023-05-10T10:12:30;21.40;53.40
4103;DHT22;2065;49.790;9.620;2023-05-10T10:14:59;21.20;53.20
4103;DHT22;2065;49.790;9.620;2023-05-10T10:17:27;21.30;53.20
4103;DHT22;2065;49.790;9.620;2023-05-10T10:19:55;21.40;54.60
4103;DHT22;2065;49.790;9.620;2023-05-10T10:22:23;21.70;53.60
4103;DHT22;2065;49.790;9.620;2023-05-10T10:24:50;21.70;52.90
4103;DHT22;2065;49.790;9.620;2023-05-10T10:27:23;21.50;52.30
4103;DHT22;2065;49.790;9.620;2023-05-10T10:30:01;21.40;52.60
4103;DHT22;2065;49.790;9.620;2023-05-10T10:32:38;21.60;54.20
4103;DHT22;2065;49.790;9.620;2023-05-10T10:35:09;21.40;53.10
4103;DHT22;2065;49.790;9.620;2023-05-10T10:37:44;21.30;53.90
4103;DHT22;2065;49.790;9.620;2023-05-10T10:40:28;21.30;54.50
4103;DHT22;2065;49.790;9.620;2023-05-10T10:42:56;21.50;54.10
4103;DHT22;2065;49.790;9.620;2023-05-10T10:45:25;21.30;53.30
4103;DHT22;2065;49.790;9.620;2023-05-10T10:48:19;21.20;54.00
4103;DHT22;2065;49.790;9.620;2023-05-10T10:50:46;21.30;55.60
4103;DHT22;2065;49.790;9.620;2023-05-10T10:53:14;21.10;53.20
4103;DHT22;2065;49.790;9.620;2023-05-10T10:55:47;21.10;54.20
4103;DHT22;2065;49.790;9.620;2023-05-10T10:58:28;21.40;53.90
4103;DHT22;2065;49.790;9.620;2023-05-10T11:01:11;21.70;53.90
4103;DHT22;2065;49.790;9.620;2023-05-10T11:03:38;21.90;52.40
4103;DHT22;2065;49.790;9.620;2023-05-10T11:06:05;21.90;52.90
4103;DHT22;2065;49.790;9.620;2023-05-10T11:08:34;22.00;52.70
4103;DHT22;2065;49.790;9.620;2023-05-10T11:11:07;21.80;52.40
4103;DHT22;2065;49.790;9.620;2023-05-10T11:13:38;21.90;53.50
4103;DHT22;2065;49.790;9.620;2023-05-10T11:16:17;22.20;53.40
4103;DHT22;2065;49.790;9.620;2023-05-10T11:18:59;22.40;52.40
4103;DHT22;2065;49.790;9.620;2023-05-10T11:21:27;22.30;50.80
4103;DHT22;2065;49.790;9.620;2023-05-10T11:23:55;22.40;51.60
4103;DHT22;2065;49.790;9.620;2023-05-10T11:26:23;22.20;50.80
4103;DHT22;2065;49.790;9.620;2023-05-10T11:28:53;22.50;51.50
4103;DHT22;2065;49.790;9.620;2023-05-10T11:31:23;22.60;51.40
4103;DHT22;2065;49.790;9.620;2023-05-10T11:33:53;22.80;50.80
4103;DHT22;2065;49.790;9.620;2023-05-10T11:36:23;23.00;50.30
4103;DHT22;2065;49.790;9.620;2023-05-10T11:38:51;23.20;49.40
4103;DHT22;2065;49.790;9.620;2023-05-10T11:41:19;23.10;48.90
4103;DHT22;2065;49.790;9.620;2023-05-10T11:43:49;23.10;49.50
4103;DHT22;2065;49.790;9.620;2023-05-10T11:46:19;23.50;48.90
4103;DHT22;2065;49.790;9.620;2023-05-10T11:48:49;23.30;48.40
4103;DHT22;2065;49.790;9.620;2023-05-10T11:51:20;23.10;49.30
4103;DHT22;2065;49.790;9.620;2023-05-10T11:53:48;23.00;49.50
4103;DHT22;2065;49.790;9.620;2023-05-10T11:56:15;23.00;50.70
4103;DHT22;2065;49.790;9.620;2023-05-10T11:58:42;23.00;50.00
4103;DHT22;2065;49.790;9.620;2023-05-10T12:01:10;22.80;51.70
4103;DHT22;2065;49.790;9.620;2023-05-10T12:03:37;22.40;53.50
4103;DHT22;2065;49.790;9.620;2023-05-10T12:06:07;21.60;54.40
4103;DHT22;2065;49.790;9.620;2023-05-10T12:08:34;21.10;56.30
4103;DHT22;2065;49.790;9.620;2023-05-10T12:11:05;20.70;58.70
4103;DHT22;2065;49.790;9.620;2023-05-10T12:13:36;20.20;61.30
4103;DHT22;2065;49.790;9.620;2023-05-10T12:16:12;20.10;62.00
4103;DHT22;2065;49.790;9.620;2023-05-10T12:18:40;20.20;61.20
4103;DHT22;2065;49.790;9.620;2023-05-10T12:21:09;20.30;61.60
4103;DHT22;2065;49.790;9.620;2023-05-10T12:23:36;20.30;62.60
4103;DHT22;2065;49.790;9.620;2023-05-10T12:26:04;20.30;62.70
4103;DHT22;2065;49.790;9.620;2023-05-10T12:28:32;20.40;62.00
4103;DHT22;2065;49.790;9.620;2023-05-10T12:31:00;20.50;60.90
4103;DHT22;2065;49.790;9.620;2023-05-10T12:33:35;20.40;60.30
4103;DHT22;2065;49.790;9.620;2023-05-10T12:36:03;20.50;62.10
4103;DHT22;2065;49.790;9.620;2023-05-10T12:38:33;20.60;59.80
4103;DHT22;2065;49.790;9.620;2023-05-10T12:41:02;20.70;61.20
4103;DHT22;2065;49.790;9.620;2023-05-10T12:43:29;20.90;60.90
4103;DHT22;2065;49.790;9.620;2023-05-10T12:45:56;21.00;59.20
4103;DHT22;2065;49.790;9.620;2023-05-10T12:48:23;21.00;58.50
4103;DHT22;2065;49.790;9.620;2023-05-10T12:50:50;20.90;58.30
4103;DHT22;2065;49.790;9.620;2023-05-10T12:53:17;20.70;59.00
4103;DHT22;2065;49.790;9.620;2023-05-10T12:55:45;20.60;59.20
4103;DHT22;2065;49.790;9.620;2023-05-10T12:58:12;20.70;60.20
4103;DHT22;2065;49.790;9.620;2023-05-10T13:00:39;20.80;59.40
4103;DHT22;2065;49.790;9.620;2023-05-10T13:03:06;21.00;59.40
4103;DHT22;2065;49.790;9.620;2023-05-10T13:05:33;21.10;58.80
4103;DHT22;2065;49.790;9.620;2023-05-10T13:08:00;21.10;59.50
4103;DHT22;2065;49.790;9.620;2023-05-10T13:10:28;21.10;58.80
4103;DHT22;2065;49.790;9.620;2023-05-10T13:12:57;21.20;58.70
4103;DHT22;2065;49.790;9.620;2023-05-10T13:15:24;21.10;58.00
4103;DHT22;2065;49.790;9.620;2023-05-10T13:17:52;21.20;58.40
4103;DHT22;2065;49.790;9.620;2023-05-10T13:20:19;20.90;58.90
4103;DHT22;2065;49.790;9.620;2023-05-10T13:22:46;20.90;59.10
4103;DHT22;2065;49.790;9.620;2023-05-10T13:25:13;21.10;60.10
4103;DHT22;2065;49.790;9.620;2023-05-10T13:27:41;21.20;59.10
4103;DHT22;2065;49.790;9.620;2023-05-10T13:30:09;21.30;59.30
4103;DHT22;2065;49.790;9.620;2023-05-10T13:32:37;21.30;59.30
4103;DHT22;2065;49.790;9.620;2023-05-10T13:35:05;21.40;59.90
4103;DHT22;2065;49.790;9.620;2023-05-10T13:37:32;21.60;59.10
4103;DHT22;2065;49.790;9.620;2023-05-10T13:40:01;21.90;58.40
4103;DHT22;2065;49.790;9.620;2023-05-10T13:42:28;22.00;58.80
4103;DHT22;2065;49.790;9.620;2023-05-10T13:44:55;21.80;58.70
4103;DHT22;2065;49.790;9.620;2023-05-10T13:47:23;21.80;59.10
4103;DHT22;2065;49.790;9.620;2023-05-10T13:49:50;21.60;58.10
4103;DHT22;2065;49.790;9.620;2023-05-10T13:52:17;21.50;57.00
4103;DHT22;2065;49.790;9.620;2023-05-10T13:54:44;21.50;57.20
4103;DHT22;2065;49.790;9.620;2023-05-10T13:57:11;21.70;58.30
4103;DHT22;2065;49.790;9.620;2023-05-10T13:59:39;21.70;58.10
4103;DHT22;2065;49.790;9.620;2023-05-10T14:02:06;21.70;57.40
4103;DHT22;2065;49.790;9.620;2023-05-10T14:04:34;21.80;57.50
4103;DHT22;2065;49.790;9.620;2023-05-10T14:07:01;21.70;57.30
4103;DHT22;2065;49.790;9.620;2023-05-10T14:09:28;21.60;55.60
4103;DHT22;2065;49.790;9.620;2023-05-10T14:11:56;21.60;56.70
4103;DHT22;2065;49.790;9.620;2023-05-10T14:14:23;21.60;56.30
4103;DHT22;2065;49.790;9.620;2023-05-10T14:16:50;21.90;57.10
4103;DHT22;2065;49.790;9.620;2023-05-10T14:19:17;21.80;55.30
4103;DHT22;2065;49.790;9.620;2023-05-10T14:21:46;21.90;56.40
4103;DHT22;2065;49.790;9.620;2023-05-10T14:24:13;22.10;56.10
4103;DHT22;2065;49.790;9.620;2023-05-10T14:26:39;21.90;55.40
4103;DHT22;2065;49.790;9.620;2023-05-10T14:29:06;22.00;56.90
4103;DHT22;2065;49.790;9.620;2023-05-10T14:31:33;22.10;55.60
4103;DHT22;2065;49.790;9.620;2023-05-10T14:34:00;22.20;56.20
4103;DHT22;2065;49.790;9.620;2023-05-10T14:36:28;22.00;55.20
4103;DHT22;2065;49.790;9.620;2023-05-10T14:38:57;22.00;55.20
4103;DHT22;2065;49.790;9.620;2023-05-10T14:41:23;21.80;54.30
4103;DHT22;2065;49.790;9.620;2023-05-10T14:43:50;21.80;55.40
4103;DHT22;2065;49.790;9.620;2023-05-10T14:46:18;21.90;56.00
4103;DHT22;2065;49.790;9.620;2023-05-10T14:48:44;21.90;54.70
4103;DHT22;2065;49.790;9.620;2023-05-10T14:51:11;22.00;56.50
4103;DHT22;2065;49.790;9.620;2023-05-10T14:53:38;22.10;56.20
4103;DHT22;2065;49.790;9.620;2023-05-10T14:56:07;22.00;53.90
4103;DHT22;2065;49.790;9.620;2023-05-10T14:58:34;21.90;54.70
4103;DHT22;2065;49.790;9.620;2023-05-10T15:01:01;21.80;54.00
4103;DHT22;2065;49.790;9.620;2023-05-10T15:03:28;21.50;55.00
4103;DHT22;2065;49.790;9.620;2023-05-10T15:05:55;21.50;56.00
4103;DHT22;2065;49.790;9.620;2023-05-10T15:08:23;21.50;54.60
4103;DHT22;2065;49.790;9.620;2023-05-10T15:10:50;21.50;54.80
4103;DHT22;2065;49.790;9.620;2023-05-10T15:13:18;21.60;55.90
4103;DHT22;2065;49.790;9.620;2023-05-10T15:15:46;21.80;55.00
4103;DHT22;2065;49.790;9.620;2023-05-10T15:18:13;22.00;56.20
4103;DHT22;2065;49.790;9.620;2023-05-10T15:20:40;22.20;55.70
4103;DHT22;2065;49.790;9.620;2023-05-10T15:23:07;22.30;55.80
4103;DHT22;2065;49.790;9.620;2023-05-10T15:25:34;22.30;55.00
4103;DHT22;2065;49.790;9.620;2023-05-10T15:28:04;22.30;55.10
4103;DHT22;2065;49.790;9.620;2023-05-10T15:30:33;22.40;55.20
4103;DHT22;2065;49.790;9.620;2023-05-10T15:33:00;22.60;55.00
4103;DHT22;2065;49.790;9.620;2023-05-10T15:35:27;22.60;52.90
4103;DHT22;2065;49.790;9.620;2023-05-10T15:37:54;22.60;53.80
4103;DHT22;2065;49.790;9.620;2023-05-10T15:40:21;22.70;53.40
4103;DHT22;2065;49.790;9.620;2023-05-10T15:42:48;22.80;52.20
4103;DHT22;2065;49.790;9.620;2023-05-10T15:45:15;22.80;53.00
4103;DHT22;2065;49.790;9.620;2023-05-10T15:47:43;22.80;53.10
4103;DHT22;2065;49.790;9.620;2023-05-10T15:50:11;22.70;52.80
4103;DHT22;2065;49.790;9.620;2023-05-10T15:52:38;22.70;53.10
4103;DHT22;2065;49.790;9.620;2023-05-10T15:55:06;22.60;53.40
4103;DHT22;2065;49.790;9.620;2023-05-10T15:57:38;22.50;52.90
4103;DHT22;2065;49.790;9.620;2023-05-10T16:00:06;22.30;52.60
4103;DHT22;2065;49.790;9.620;2023-05-10T16:02:38;22.30;54.00
4103;DHT22;2065;49.790;9.620;2023-05-10T16:05:07;22.40;52.90
4103;DHT22;2065;49.790;9.620;2023-05-10T16:07:35;22.40;51.60
4103;DHT22;2065;49.790;9.620;2023-05-10T16:10:03;22.30;51.50
4103;DHT22;2065;49.790;9.620;2023-05-10T16:12:31;22.40;52.40
4103;DHT22;2065;49.790;9.620;2023-05-10T16:14:58;22.30;52.90